createdAt,value
2022-11-19T00:00:52.885Z,-1.22
2022-11-19T00:03:19.733Z,-1.22
2022-11-19T00:05:46.527Z,-1.12
2022-11-19T00:08:13.356Z,-1.24
2022-11-19T00:10:39.743Z,-1.30
2022-11-19T00:13:06.510Z,-1.29
2022-11-19T00:15:36.025Z,-1.33
2022-11-19T00:18:02.652Z,-1.30
2022-11-19T00:20:28.977Z,-1.38
2022-11-19T00:22:57.026Z,-1.33
2022-11-19T00:25:23.651Z,-1.35
2022-11-19T00:27:50.295Z,-1.30
2022-11-19T00:30:40.940Z,-1.35
2022-11-19T00:33:03.117Z,-1.31
2022-11-19T00:35:29.488Z,-1.41
2022-11-19T00:37:55.827Z,-1.43
2022-11-19T00:40:22.198Z,-1.37
2022-11-19T00:43:08.753Z,-1.28
2022-11-19T00:45:35.112Z,-1.28
2022-11-19T00:48:01.444Z,-1.29
2022-11-19T00:50:27.833Z,-1.26
2022-11-19T00:52:54.145Z,-1.27
2022-11-19T00:55:20.477Z,-1.24
2022-11-19T00:57:46.800Z,-1.20
2022-11-19T01:00:13.599Z,-1.21
2022-11-19T01:02:39.931Z,-1.27
2022-11-19T01:05:06.512Z,-1.20
2022-11-19T01:07:32.903Z,-1.15
2022-11-19T01:09:59.311Z,-1.23
2022-11-19T01:12:25.634Z,-1.22
2022-11-19T01:14:51.988Z,-1.22
2022-11-19T01:17:18.318Z,-1.23
2022-11-19T01:19:44.655Z,-1.30
2022-11-19T01:22:10.987Z,-1.29
2022-11-19T01:24:37.303Z,-1.23
2022-11-19T01:27:03.625Z,-1.40
2022-11-19T01:29:30.177Z,-1.34
2022-11-19T01:31:56.544Z,-1.46
2022-11-19T01:34:22.881Z,-1.45
2022-11-19T01:36:49.245Z,-1.53
2022-11-19T01:39:15.575Z,-1.43
2022-11-19T01:41:41.951Z,-1.40
2022-11-19T01:44:08.280Z,-1.41
2022-11-19T01:46:35.348Z,-1.38
2022-11-19T01:49:12.530Z,-1.33
2022-11-19T01:51:39.809Z,-1.30
2022-11-19T01:54:10.925Z,-1.21
2022-11-19T01:56:37.322Z,-1.33
2022-11-19T01:59:04.268Z,-1.31
2022-11-19T02:01:31.050Z,-1.31
2022-11-19T02:03:58.278Z,-1.24
2022-11-19T02:06:24.622Z,-1.23
2022-11-19T02:08:51.493Z,-1.22
2022-11-19T02:11:36.726Z,-1.24
2022-11-19T02:14:03.026Z,-1.28
2022-11-19T02:16:41.590Z,-1.38
2022-11-19T02:19:07.874Z,-1.38
2022-11-19T02:21:37.166Z,-1.49
2022-11-19T02:24:16.827Z,-1.52
2022-11-19T02:27:02.006Z,-1.47
2022-11-19T02:29:31.702Z,-1.42
2022-11-19T02:31:58.007Z,-1.34
2022-11-19T02:34:31.522Z,-1.46
2022-11-19T02:36:58.551Z,-1.60
2022-11-19T02:39:27.867Z,-1.42
2022-11-19T02:41:56.073Z,-1.36
2022-11-19T02:44:42.887Z,-1.41
2022-11-19T02:47:13.137Z,-1.39
2022-11-19T02:49:41.824Z,-1.39
2022-11-19T02:52:08.199Z,-1.41
2022-11-19T02:54:34.536Z,-1.55
2022-11-19T02:57:01.065Z,-1.66
2022-11-19T02:59:54.833Z,-1.61
2022-11-19T03:02:40.005Z,-1.66
2022-11-19T03:05:07.241Z,-1.70
2022-11-19T03:07:33.595Z,-1.65
2022-11-19T03:10:00.410Z,-1.71
2022-11-19T03:12:45.215Z,-1.91
2022-11-19T03:15:41.772Z,-1.88
2022-11-19T03:18:19.273Z,-1.94
2022-11-19T03:20:47.078Z,-2.06
2022-11-19T03:23:19.095Z,-2.17
2022-11-19T03:25:47.321Z,-2.23
2022-11-19T03:28:15.149Z,-2.25
2022-11-19T03:30:42.031Z,-2.30
2022-11-19T03:33:20.348Z,-2.33
2022-11-19T03:35:47.658Z,-2.31
2022-11-19T03:38:18.815Z,-2.38
2022-11-19T03:40:45.163Z,-2.42
2022-11-19T03:43:11.641Z,-2.47
2022-11-19T03:45:39.331Z,-2.46
2022-11-19T03:48:05.771Z,-2.53
2022-11-19T03:50:37.970Z,-2.54
2022-11-19T03:53:04.792Z,-2.64
2022-11-19T03:55:32.804Z,-2.54
2022-11-19T03:58:03.087Z,-2.59
2022-11-19T04:00:29.429Z,-2.62
2022-11-19T04:02:55.870Z,-2.70
2022-11-19T04:05:22.188Z,-2.74
2022-11-19T04:07:48.510Z,-2.76
2022-11-19T04:10:15.044Z,-2.83
2022-11-19T04:12:41.370Z,-2.81
2022-11-19T04:15:08.066Z,-2.84
2022-11-19T04:17:34.401Z,-2.80
2022-11-19T04:20:00.807Z,-2.87
2022-11-19T04:22:27.133Z,-2.86
2022-11-19T04:24:53.497Z,-2.86
2022-11-19T04:27:19.857Z,-2.97
2022-11-19T04:29:46.169Z,-3.00
2022-11-19T04:32:12.509Z,-3.07
2022-11-19T04:34:38.853Z,-3.05
2022-11-19T04:37:05.199Z,-2.99
2022-11-19T04:39:31.534Z,-2.92
2022-11-19T04:41:58.130Z,-3.08
2022-11-19T04:44:24.449Z,-3.12
2022-11-19T04:46:50.801Z,-3.15
2022-11-19T04:49:17.339Z,-3.23
2022-11-19T04:51:43.800Z,-3.35
2022-11-19T04:54:10.139Z,-3.29
2022-11-19T04:56:36.793Z,-3.32
2022-11-19T04:59:03.518Z,-3.29
2022-11-19T05:01:29.889Z,-3.38
2022-11-19T05:03:56.227Z,-3.38
2022-11-19T05:06:22.577Z,-3.43
2022-11-19T05:08:48.894Z,-3.39
2022-11-19T05:11:15.234Z,-3.30
2022-11-19T05:13:41.546Z,-3.44
2022-11-19T05:16:07.946Z,-3.49
2022-11-19T05:18:34.269Z,-3.54
2022-11-19T05:21:00.643Z,-3.52
2022-11-19T05:23:27.057Z,-3.58
2022-11-19T05:25:53.474Z,-3.53
2022-11-19T05:28:24.813Z,-3.58
2022-11-19T05:30:59.486Z,-3.54
2022-11-19T05:33:28.676Z,-3.50
2022-11-19T05:35:57.484Z,-3.59
2022-11-19T05:38:23.811Z,-3.68
2022-11-19T05:40:50.123Z,-3.71
2022-11-19T05:43:16.463Z,-3.77
2022-11-19T05:45:42.772Z,-3.81
2022-11-19T05:48:09.123Z,-3.84
2022-11-19T05:50:35.518Z,-3.81
2022-11-19T05:53:01.973Z,-3.88
2022-11-19T05:55:28.294Z,-3.89
2022-11-19T05:57:54.637Z,-3.94
2022-11-19T06:00:20.974Z,-3.96
2022-11-19T06:02:47.397Z,-4.01
2022-11-19T06:05:13.767Z,-4.03
2022-11-19T06:07:40.185Z,-4.04
2022-11-19T06:10:06.806Z,-3.93
2022-11-19T06:12:33.128Z,-3.96
2022-11-19T06:15:00.687Z,-4.12
2022-11-19T06:17:27.039Z,-4.21
2022-11-19T06:19:53.355Z,-4.22
2022-11-19T06:22:19.695Z,-4.20
2022-11-19T06:24:46.012Z,-4.11
2022-11-19T06:27:12.335Z,-4.16
2022-11-19T06:29:38.644Z,-4.26
2022-11-19T06:32:04.973Z,-4.36
2022-11-19T06:34:31.286Z,-4.29
2022-11-19T06:36:58.738Z,-4.31
2022-11-19T06:39:25.057Z,-4.39
2022-11-19T06:41:51.433Z,-4.55
2022-11-19T06:44:17.752Z,-4.56
2022-11-19T06:46:44.096Z,-4.57
2022-11-19T06:49:13.196Z,-4.53
2022-11-19T06:51:41.881Z,-4.53
2022-11-19T06:54:08.222Z,-4.45
2022-11-19T06:56:34.534Z,-4.41
2022-11-19T06:59:00.953Z,-4.49
2022-11-19T07:01:27.341Z,-4.53
2022-11-19T07:03:53.776Z,-4.47
2022-11-19T07:06:20.125Z,-4.48
2022-11-19T07:08:46.450Z,-4.52
2022-11-19T07:11:28.128Z,-4.48
2022-11-19T07:13:58.116Z,-4.49
2022-11-19T07:16:25.044Z,-4.33
2022-11-19T07:18:51.695Z,-4.29
2022-11-19T07:21:18.022Z,-4.19
2022-11-19T07:23:44.366Z,-4.12
2022-11-19T07:26:10.690Z,-4.17
2022-11-19T07:28:37.027Z,-4.16
2022-11-19T07:31:06.737Z,-4.12
2022-11-19T07:33:33.658Z,-4.00
2022-11-19T07:36:00.056Z,-4.04
2022-11-19T07:38:26.404Z,-4.02
2022-11-19T07:40:53.584Z,-3.86
2022-11-19T07:43:20.001Z,-3.74
2022-11-19T07:45:46.327Z,-3.74
2022-11-19T07:48:12.699Z,-3.77
2022-11-19T07:50:40.435Z,-3.69
2022-11-19T07:53:10.184Z,-3.70
2022-11-19T07:55:36.764Z,-3.57
2022-11-19T07:58:03.094Z,-3.47
2022-11-19T08:00:29.484Z,-3.41
2022-11-19T08:02:55.865Z,-3.33
2022-11-19T08:05:22.182Z,-3.30
2022-11-19T08:07:48.534Z,-3.25
2022-11-19T08:10:14.990Z,-3.15
2022-11-19T08:12:41.359Z,-2.90
2022-11-19T08:15:08.123Z,-2.85
2022-11-19T08:17:53.051Z,-2.66
2022-11-19T08:20:19.373Z,-2.57
2022-11-19T08:22:45.714Z,-2.38
2022-11-19T08:25:12.047Z,-2.36
2022-11-19T08:27:38.493Z,-2.19
2022-11-19T08:30:05.036Z,-2.09
2022-11-19T08:32:31.391Z,-1.90
2022-11-19T08:34:57.756Z,-1.85
2022-11-19T08:37:24.114Z,-1.74
2022-11-19T08:39:51.658Z,-1.68
2022-11-19T08:42:36.804Z,-1.59
2022-11-19T08:45:03.682Z,-1.65
2022-11-19T08:47:30.033Z,-1.60
2022-11-19T08:49:56.553Z,-1.55
2022-11-19T08:52:22.885Z,-1.69
2022-11-19T08:54:49.212Z,-1.92
2022-11-19T08:57:15.643Z,-2.00
2022-11-19T08:59:41.966Z,-2.18
2022-11-19T09:02:09.972Z,-2.29
2022-11-19T09:04:37.062Z,-2.26
2022-11-19T09:07:03.585Z,-2.39
2022-11-19T09:09:29.927Z,-2.25
2022-11-19T09:11:56.739Z,-2.14
2022-11-19T09:14:23.058Z,-1.97
2022-11-19T09:16:49.408Z,-2.02
2022-11-19T09:19:15.733Z,-1.72
2022-11-19T09:21:42.053Z,-1.57
2022-11-19T09:24:08.377Z,-1.55
2022-11-19T09:26:34.701Z,-1.45
2022-11-19T09:29:01.063Z,-1.32
2022-11-19T09:31:27.416Z,-1.38
2022-11-19T09:33:53.840Z,-1.32
2022-11-19T09:36:20.231Z,-1.46
2022-11-19T09:38:46.871Z,-1.56
2022-11-19T09:41:32.666Z,-1.46
2022-11-19T09:44:02.326Z,-1.39
2022-11-19T09:46:46.581Z,-1.29
2022-11-19T09:49:18.774Z,-1.15
2022-11-19T09:51:46.470Z,-1.24
2022-11-19T09:54:14.916Z,-1.15
2022-11-19T09:56:44.986Z,-0.98
2022-11-19T09:59:31.605Z,-0.84
2022-11-19T10:01:57.922Z,-0.75
2022-11-19T10:04:25.055Z,-0.55
2022-11-19T10:07:11.272Z,-0.43
2022-11-19T10:09:55.143Z,-0.49
2022-11-19T10:12:30.578Z,-0.43
2022-11-19T10:14:56.923Z,-0.37
2022-11-19T10:17:55.591Z,-0.64
2022-11-19T10:20:21.905Z,-0.50
2022-11-19T10:22:57.744Z,-0.49
2022-11-19T10:25:26.276Z,-0.40
2022-11-19T10:27:55.093Z,-0.40
2022-11-19T10:30:22.597Z,-0.08
2022-11-19T10:32:58.901Z,0.24
2022-11-19T10:35:32.319Z,0.50
2022-11-19T10:37:59.766Z,0.42
2022-11-19T10:40:36.983Z,0.42
2022-11-19T10:43:23.601Z,0.39
2022-11-19T10:45:50.196Z,0.47
2022-11-19T10:48:21.043Z,0.58
2022-11-19T10:50:47.422Z,0.21
2022-11-19T10:53:13.721Z,0.47
2022-11-19T10:55:41.254Z,0.51
2022-11-19T10:58:10.714Z,0.38
2022-11-19T11:00:37.648Z,0.67
2022-11-19T11:03:04.226Z,0.40
2022-11-19T11:05:30.789Z,0.56
2022-11-19T11:07:58.028Z,0.51
2022-11-19T11:10:34.694Z,0.75
2022-11-19T11:13:29.230Z,0.55
2022-11-19T11:15:55.557Z,0.83
2022-11-19T11:18:24.739Z,1.12
2022-11-19T11:20:51.123Z,0.97
2022-11-19T11:23:18.702Z,1.37
2022-11-19T11:26:00.640Z,1.52
2022-11-19T11:28:26.970Z,1.58
2022-11-19T11:30:56.397Z,1.69
2022-11-19T11:33:22.712Z,1.85
2022-11-19T11:35:49.064Z,2.17
2022-11-19T11:38:15.427Z,2.10
2022-11-19T11:40:41.745Z,2.27
2022-11-19T11:43:14.442Z,2.24
2022-11-19T11:45:40.760Z,2.26
2022-11-19T11:48:18.756Z,1.98
2022-11-19T11:50:45.576Z,1.86
2022-11-19T11:53:13.593Z,1.94
2022-11-19T11:55:39.962Z,1.89
2022-11-19T11:58:22.852Z,2.01
2022-11-19T12:00:49.175Z,1.96
2022-11-19T12:03:16.461Z,1.64
2022-11-19T12:05:44.819Z,1.92
2022-11-19T12:08:29.986Z,2.17
2022-11-19T12:10:59.661Z,2.47
2022-11-19T12:13:30.563Z,2.58
2022-11-19T12:15:56.835Z,2.83
2022-11-19T12:18:42.050Z,2.98
2022-11-19T12:21:12.144Z,2.99
2022-11-19T12:23:38.612Z,2.69
2022-11-19T12:26:12.793Z,2.57
2022-11-19T12:28:45.239Z,2.21
2022-11-19T12:31:11.522Z,2.39
2022-11-19T12:33:40.589Z,2.18
2022-11-19T12:36:25.752Z,2.17
2022-11-19T12:38:52.079Z,2.41
2022-11-19T12:41:22.958Z,2.39
2022-11-19T12:43:56.522Z,2.25
2022-11-19T12:46:38.232Z,2.17
2022-11-19T12:49:23.469Z,2.09
2022-11-19T12:51:59.951Z,2.02
2022-11-19T12:54:36.017Z,1.74
2022-11-19T12:57:17.105Z,1.48
2022-11-19T12:59:46.559Z,0.63
2022-11-19T13:02:16.374Z,0.29
2022-11-19T13:05:13.972Z,-0.12
2022-11-19T13:07:42.725Z,-0.07
2022-11-19T13:10:16.661Z,-0.36
2022-11-19T13:12:43.829Z,-0.39
2022-11-19T13:15:28.977Z,-0.56
2022-11-19T13:17:55.669Z,-0.55
2022-11-19T13:20:21.970Z,-0.48
2022-11-19T13:22:48.347Z,-0.39
2022-11-19T13:25:20.859Z,-0.37
2022-11-19T13:27:47.365Z,-0.25
2022-11-19T13:30:17.811Z,-0.12
2022-11-19T13:32:50.337Z,-0.06
2022-11-19T13:35:20.873Z,-0.04
2022-11-19T13:37:58.023Z,-0.02
2022-11-19T13:40:33.997Z,-0.06
2022-11-19T13:43:34.445Z,-0.06
2022-11-19T13:46:05.668Z,0.02
2022-11-19T13:48:33.367Z,0.06
2022-11-19T13:51:00.620Z,-0.08
2022-11-19T13:53:34.235Z,-0.01
2022-11-19T13:56:02.992Z,0.00
2022-11-19T13:58:29.301Z,-0.06
2022-11-19T14:01:06.811Z,-0.10
2022-11-19T14:03:56.415Z,-0.31
2022-11-19T14:06:25.822Z,-0.56
2022-11-19T14:09:01.286Z,-0.56
2022-11-19T14:11:30.355Z,-0.59
2022-11-19T14:13:59.847Z,-0.65
2022-11-19T14:16:51.034Z,-0.79
2022-11-19T14:19:36.374Z,-0.85
2022-11-19T14:22:41.374Z,-0.96
2022-11-19T14:25:26.799Z,-1.06
2022-11-19T14:27:53.123Z,-1.28
2022-11-19T14:30:20.027Z,-1.23
2022-11-19T14:32:50.653Z,-1.32
2022-11-19T14:35:26.301Z,-1.36
2022-11-19T14:37:56.894Z,-1.38
2022-11-19T14:40:24.188Z,-1.32
2022-11-19T14:43:18.531Z,-1.46
2022-11-19T14:46:03.369Z,-1.57
2022-11-19T14:48:33.495Z,-1.58
2022-11-19T14:51:05.928Z,-1.55
2022-11-19T14:53:32.303Z,-1.58
2022-11-19T14:55:58.649Z,-1.62
2022-11-19T14:58:24.969Z,-1.60
2022-11-19T15:00:54.328Z,-1.77
2022-11-19T15:03:26.952Z,-1.66
2022-11-19T15:05:53.434Z,-1.73
2022-11-19T15:08:19.738Z,-1.68
2022-11-19T15:10:49.161Z,-1.64
2022-11-19T15:13:17.029Z,-1.58
2022-11-19T15:15:43.478Z,-1.71
2022-11-19T15:18:15.169Z,-1.76
2022-11-19T15:20:53.799Z,-1.81
2022-11-19T15:23:26.124Z,-1.85
2022-11-19T15:26:01.810Z,-1.89
2022-11-19T15:28:47.085Z,-1.90
2022-11-19T15:31:13.400Z,-1.84
2022-11-19T15:33:45.848Z,-1.94
2022-11-19T15:36:26.379Z,-2.18
2022-11-19T15:38:54.908Z,-2.18
2022-11-19T15:41:22.357Z,-1.98
2022-11-19T15:43:51.696Z,-2.01
2022-11-19T15:46:30.206Z,-2.16
2022-11-19T15:49:15.640Z,-2.24
2022-11-19T15:52:05.286Z,-2.39
2022-11-19T15:54:32.323Z,-2.43
2022-11-19T15:57:01.793Z,-2.53
2022-11-19T15:59:28.277Z,-2.49
2022-11-19T16:02:01.572Z,-2.45
2022-11-19T16:04:29.131Z,-2.25
2022-11-19T16:06:55.859Z,-2.33
2022-11-19T16:09:23.661Z,-2.24
2022-11-19T16:12:08.743Z,-2.31
2022-11-19T16:14:53.646Z,-2.22
2022-11-19T16:17:35.795Z,-2.30
2022-11-19T16:20:10.982Z,-2.26
2022-11-19T16:22:44.133Z,-2.26
2022-11-19T16:25:11.637Z,-2.17
2022-11-19T16:27:39.399Z,-2.15
2022-11-19T16:30:06.093Z,-2.18
2022-11-19T16:32:32.422Z,-2.11
2022-11-19T16:35:11.614Z,-2.24
2022-11-19T16:37:37.935Z,-2.32
2022-11-19T16:40:04.389Z,-2.53
2022-11-19T16:42:32.611Z,-2.60
2022-11-19T16:45:09.803Z,-2.46
2022-11-19T16:47:39.489Z,-2.42
2022-11-19T16:50:06.798Z,-2.34
2022-11-19T16:52:33.146Z,-2.43
2022-11-19T16:54:59.705Z,-2.39
2022-11-19T16:57:26.450Z,-2.62
2022-11-19T16:59:53.715Z,-2.86
2022-11-19T17:02:20.731Z,-2.73
2022-11-19T17:04:48.229Z,-2.68
2022-11-19T17:07:14.692Z,-2.68
2022-11-19T17:09:42.318Z,-2.80
2022-11-19T17:12:25.099Z,-2.78
2022-11-19T17:14:52.689Z,-2.75
2022-11-19T17:17:28.245Z,-2.81
2022-11-19T17:19:56.449Z,-2.92
2022-11-19T17:22:23.617Z,-2.97
2022-11-19T17:24:50.006Z,-2.91
2022-11-19T17:27:24.235Z,-3.02
2022-11-19T17:29:50.972Z,-2.82
2022-11-19T17:32:17.289Z,-2.78
2022-11-19T17:34:47.061Z,-2.80
2022-11-19T17:37:13.380Z,-2.92
2022-11-19T17:39:39.719Z,-2.98
2022-11-19T17:42:24.825Z,-2.90
2022-11-19T17:44:51.592Z,-2.78
2022-11-19T17:47:23.134Z,-2.79
2022-11-19T17:49:50.346Z,-2.91
2022-11-19T17:52:21.778Z,-2.97
2022-11-19T17:54:48.687Z,-2.69
2022-11-19T17:57:15.059Z,-2.76
2022-11-19T17:59:41.462Z,-2.73
2022-11-19T18:02:12.549Z,-3.03
2022-11-19T18:04:38.932Z,-3.06
2022-11-19T18:07:05.337Z,-2.98
2022-11-19T18:09:34.926Z,-3.06
2022-11-19T18:12:01.513Z,-2.90
2022-11-19T18:14:27.835Z,-2.87
2022-11-19T18:16:54.167Z,-2.84
2022-11-19T18:19:25.034Z,-2.83
2022-11-19T18:21:51.911Z,-2.87
2022-11-19T18:24:18.246Z,-2.89
2022-11-19T18:26:44.588Z,-2.87
2022-11-19T18:29:10.990Z,-2.87
2022-11-19T18:31:47.360Z,-2.94
2022-11-19T18:34:17.972Z,-3.00
2022-11-19T18:36:44.308Z,-3.01
2022-11-19T18:39:10.691Z,-3.02
2022-11-19T18:41:37.010Z,-3.05
2022-11-19T18:44:22.264Z,-3.06
2022-11-19T18:46:48.596Z,-3.18
2022-11-19T18:49:14.924Z,-3.15
2022-11-19T18:51:42.985Z,-3.35
2022-11-19T18:54:11.069Z,-3.21
2022-11-19T18:56:37.399Z,-3.19
2022-11-19T18:59:05.074Z,-3.18
2022-11-19T19:01:31.699Z,-3.25
2022-11-19T19:03:58.069Z,-3.39
2022-11-19T19:06:25.481Z,-3.27
2022-11-19T19:08:51.938Z,-3.33
2022-11-19T19:11:36.982Z,-3.30
2022-11-19T19:14:04.084Z,-3.37
2022-11-19T19:16:30.763Z,-3.36
2022-11-19T19:18:57.456Z,-3.37
2022-11-19T19:21:23.884Z,-3.49
2022-11-19T19:23:50.461Z,-3.48
2022-11-19T19:26:17.105Z,-3.41
2022-11-19T19:28:43.454Z,-3.37
2022-11-19T19:31:12.405Z,-3.38
2022-11-19T19:33:42.789Z,-3.50
2022-11-19T19:36:09.226Z,-3.56
2022-11-19T19:38:35.571Z,-3.44
2022-11-19T19:41:05.425Z,-3.42
2022-11-19T19:43:31.760Z,-3.42
2022-11-19T19:46:05.187Z,-3.40
2022-11-19T19:48:31.545Z,-3.47
2022-11-19T19:50:57.878Z,-3.42
2022-11-19T19:53:24.213Z,-3.43
2022-11-19T19:55:50.543Z,-3.49
2022-11-19T19:58:16.862Z,-3.43
2022-11-19T20:00:43.305Z,-3.40
2022-11-19T20:03:09.622Z,-3.46
2022-11-19T20:05:35.958Z,-3.55
2022-11-19T20:08:02.544Z,-3.63
2022-11-19T20:10:28.869Z,-3.65
2022-11-19T20:13:13.917Z,-3.57
2022-11-19T20:15:41.151Z,-3.57
2022-11-19T20:18:07.483Z,-3.65
2022-11-19T20:20:33.809Z,-3.59
2022-11-19T20:23:00.169Z,-3.64
2022-11-19T20:25:26.734Z,-3.72
2022-11-19T20:27:53.056Z,-3.65
2022-11-19T20:30:19.394Z,-3.66
2022-11-19T20:32:46.021Z,-3.71
2022-11-19T20:35:12.387Z,-3.70
2022-11-19T20:37:38.721Z,-3.70
2022-11-19T20:40:05.422Z,-3.81
2022-11-19T20:42:50.632Z,-3.84
2022-11-19T20:45:17.043Z,-3.93
2022-11-19T20:47:43.455Z,-3.87
2022-11-19T20:50:09.786Z,-3.67
2022-11-19T20:52:36.215Z,-3.62
2022-11-19T20:55:06.629Z,-3.58
2022-11-19T20:57:33.344Z,-3.67
2022-11-19T21:00:00.344Z,-3.63
2022-11-19T21:02:26.766Z,-3.69
2022-11-19T21:04:53.131Z,-3.67
2022-11-19T21:07:19.515Z,-3.70
2022-11-19T21:09:45.980Z,-3.72
2022-11-19T21:12:12.324Z,-3.73
2022-11-19T21:14:38.665Z,-3.75
2022-11-19T21:17:05.006Z,-3.73
2022-11-19T21:19:31.323Z,-3.63
2022-11-19T21:21:58.101Z,-3.66
2022-11-19T21:24:24.600Z,-3.63
2022-11-19T21:26:50.961Z,-3.67
2022-11-19T21:29:17.331Z,-3.67
2022-11-19T21:31:48.589Z,-3.65
2022-11-19T21:34:15.765Z,-3.71
2022-11-19T21:36:42.268Z,-3.65
2022-11-19T21:39:08.681Z,-3.69
2022-11-19T21:41:35.145Z,-3.71
2022-11-19T21:44:01.737Z,-3.68
2022-11-19T21:46:28.087Z,-3.77
2022-11-19T21:48:54.436Z,-3.83
2022-11-19T21:51:24.577Z,-3.91
2022-11-19T21:53:53.116Z,-3.79
2022-11-19T21:56:19.450Z,-3.73
2022-11-19T21:58:45.772Z,-3.72
2022-11-19T22:01:12.279Z,-3.85
2022-11-19T22:03:38.653Z,-3.65
2022-11-19T22:06:06.012Z,-3.61
2022-11-19T22:08:32.937Z,-3.66
2022-11-19T22:10:59.470Z,-3.77
2022-11-19T22:13:25.878Z,-3.98
2022-11-19T22:15:58.913Z,-4.16
2022-11-19T22:18:25.245Z,-3.97
2022-11-19T22:20:59.632Z,-3.89
2022-11-19T22:23:25.963Z,-3.81
2022-11-19T22:25:52.311Z,-4.04
2022-11-19T22:28:18.626Z,-4.17
2022-11-19T22:30:47.608Z,-4.15
2022-11-19T22:33:13.936Z,-3.98
2022-11-19T22:35:40.266Z,-3.91
2022-11-19T22:38:06.599Z,-4.16
2022-11-19T22:40:32.932Z,-4.06
2022-11-19T22:42:59.246Z,-4.05
2022-11-19T22:45:25.574Z,-4.02
2022-11-19T22:47:51.912Z,-3.98
2022-11-19T22:50:18.225Z,-4.04
2022-11-19T22:52:44.583Z,-4.00
2022-11-19T22:55:11.026Z,-4.02
2022-11-19T22:57:37.378Z,-4.01
2022-11-19T23:00:06.258Z,-3.98
2022-11-19T23:02:32.614Z,-3.98
2022-11-19T23:04:58.961Z,-3.96
2022-11-19T23:07:25.378Z,-3.94
2022-11-19T23:09:51.740Z,-3.89
2022-11-19T23:12:36.900Z,-3.98
2022-11-19T23:15:03.262Z,-4.07
2022-11-19T23:17:29.589Z,-4.23
2022-11-19T23:19:59.142Z,-4.38
2022-11-19T23:22:28.136Z,-4.42
2022-11-19T23:24:54.462Z,-4.12
2022-11-19T23:27:22.299Z,-4.03
2022-11-19T23:29:48.769Z,-4.12
2022-11-19T23:32:15.110Z,-4.20
2022-11-19T23:34:41.436Z,-4.17
2022-11-19T23:37:08.011Z,-4.15
2022-11-19T23:39:34.349Z,-4.42
2022-11-19T23:42:00.697Z,-4.40
2022-11-19T23:44:27.077Z,-4.54
2022-11-19T23:46:53.408Z,-4.58
2022-11-19T23:49:20.066Z,-4.67
2022-11-19T23:51:46.599Z,-4.70
2022-11-19T23:54:13.806Z,-4.44
2022-11-19T23:56:40.262Z,-4.63
2022-11-19T23:59:06.697Z,-4.66
